Time;durP1;ratioP1;P1;durP2;ratioP2;P2;SDS_P1;SDS_P2;PMS_P1;PMS_P2;Temp;Humidity;BMP_temperature;BMP_pressure;BME280_temperature;BME280_humidity;BME280_pressure;Samples;Min_cycle;Max_cycle;Signal;HPM_P1;HPM_P2
2022/03/10 00:02:29;;;;;;;11.47;7.73;;;;;;;2.52;62.19;100236.53;5098095;22;20237;-75
2022/03/10 00:05:26;;;;;;;10.03;7.97;;;;;;;2.70;60.91;100239.19;5044483;22;20225;-75
2022/03/10 00:08:07;;;;;;;11.87;8.30;;;;;;;2.68;60.87;100233.19;5039098;22;20331;-75
2022/03/10 00:10:57;;;;;;;9.70;7.37;;;;;;;2.70;60.91;100233.88;5089764;22;20231;-75
2022/03/10 00:13:59;;;;;;;9.03;7.27;;;;;;;2.72;61.05;100239.84;5063305;28;20200;-75
2022/03/10 00:16:33;;;;;;;9.63;7.77;;;;;;;2.70;60.92;100238.34;5091055;28;20212;-75
2022/03/10 00:19:14;;;;;;;9.37;7.83;;;;;;;2.62;61.54;100239.09;5089882;22;20243;-75
2022/03/10 00:22:17;;;;;;;11.90;7.80;;;;;;;2.61;61.66;100243.56;5074395;28;20226;-76
2022/03/10 00:25:30;;;;;;;9.60;7.30;;;;;;;2.55;61.78;100249.47;5072104;28;20228;-75
2022/03/10 00:31:24;;;;;;;10.10;7.23;;;;;;;2.27;63.23;100249.72;5085247;22;20233;-76
2022/03/10 00:33:51;;;;;;;8.60;7.23;;;;;;;2.10;63.55;100249.53;5190391;22;20248;-76
2022/03/10 00:36:33;;;;;;;9.63;7.70;;;;;;;2.04;64.58;100249.34;5102571;22;20239;-73
2022/03/10 00:39:21;;;;;;;12.57;7.67;;;;;;;2.02;63.79;100248.63;5077705;28;20201;-75
2022/03/10 00:42:15;;;;;;;11.70;7.83;;;;;;;1.93;63.90;100241.59;5086811;28;20204;-73
2022/03/10 00:45:13;;;;;;;10.63;8.00;;;;;;;1.85;63.84;100241.53;5186019;22;20220;-74
2022/03/10 00:48:14;;;;;;;8.60;7.40;;;;;;;1.73;65.37;100251.47;5166827;22;20223;-73
2022/03/10 00:51:01;;;;;;;11.07;7.70;;;;;;;1.67;65.02;100254.72;5104921;22;20654;-75
2022/03/10 00:53:36;;;;;;;10.93;7.90;;;;;;;1.60;65.69;100250.97;5196319;22;20234;-74
2022/03/10 00:56:31;;;;;;;8.80;7.40;;;;;;;1.53;65.77;100258.69;5062385;28;20184;-75
2022/03/10 00:59:43;;;;;;;10.20;7.93;;;;;;;1.39;67.40;100255.69;5064465;28;20244;-75
2022/03/10 01:02:19;;;;;;;9.43;7.40;;;;;;;1.26;67.13;100262.09;5079190;28;20205;-75
2022/03/10 01:05:30;;;;;;;9.63;7.57;;;;;;;1.15;67.73;100266.75;5113737;22;20207;-76
2022/03/10 01:09:08;;;;;;;10.43;7.90;;;;;;;1.06;68.70;100271.09;5082372;22;20225;-75
2022/03/10 01:12:25;;;;;;;10.63;7.87;;;;;;;0.89;70.02;100267.34;5095538;22;20239;-74
2022/03/10 01:18:39;;;;;;;10.50;7.97;;;;;;;0.68;70.91;100269.34;5049107;22;20253;-74
2022/03/10 01:21:36;;;;;;;11.43;7.93;;;;;;;0.60;70.90;100268.41;5241703;22;20213;-76
2022/03/10 01:24:44;;;;;;;9.97;7.40;;;;;;;0.44;71.68;100266.31;5087661;22;20230;-73
2022/03/10 01:27:24;;;;;;;10.37;7.47;;;;;;;0.37;72.31;100266.03;5088485;28;20227;-73
2022/03/10 01:30:13;;;;;;;10.73;7.93;;;;;;;0.20;73.47;100263.25;5073638;22;20229;-73
2022/03/10 01:32:52;;;;;;;8.80;7.57;;;;;;;0.14;74.08;100269.09;5042094;28;20282;-73
2022/03/10 01:35:30;;;;;;;10.07;7.50;;;;;;;0.04;74.78;100269.09;5047934;28;20205;-74
2022/03/10 01:38:16;;;;;;;10.43;7.90;;;;;;;-0.06;74.74;100263.81;5032972;28;20239;-76
2022/03/10 01:40:50;;;;;;;10.73;8.13;;;;;;;-0.13;74.99;100265.31;5036326;28;20648;-74
2022/03/10 01:43:18;;;;;;;11.33;7.50;;;;;;;-0.22;76.23;100274.00;5157657;23;20530;-74
2022/03/10 01:46:04;;;;;;;10.33;7.83;;;;;;;-0.27;76.17;100267.47;5073519;28;20205;-73
2022/03/10 01:48:43;;;;;;;11.27;8.10;;;;;;;-0.32;76.70;100273.16;5083783;28;20217;-73
2022/03/10 01:51:24;;;;;;;9.50;7.30;;;;;;;-0.37;77.18;100274.53;5075424;28;20216;-73
2022/03/10 01:54:06;;;;;;;10.50;7.90;;;;;;;-0.37;77.52;100275.34;5081275;28;20208;-74
2022/03/10 01:56:38;;;;;;;10.23;7.93;;;;;;;-0.41;77.33;100281.03;5078881;22;20251;-74
2022/03/10 01:59:12;;;;;;;10.13;8.03;;;;;;;-0.53;78.31;100272.41;5076361;22;20239;-74
2022/03/10 02:01:44;;;;;;;12.80;7.77;;;;;;;-0.58;78.65;100269.34;5056704;28;20251;-77
2022/03/10 02:04:14;;;;;;;11.17;8.00;;;;;;;-0.66;79.38;100284.97;5074548;22;20267;-75
2022/03/10 02:06:51;;;;;;;10.70;8.10;;;;;;;-0.71;80.13;100284.53;5088851;22;20228;-75
2022/03/10 02:12:19;;;;;;;10.67;7.93;;;;;;;-0.85;80.83;100287.50;5061638;28;20608;-74
2022/03/10 02:18:12;;;;;;;11.67;8.40;;;;;;;-0.95;82.05;100292.72;5050446;28;20229;-77
2022/03/10 02:21:05;;;;;;;11.63;8.03;;;;;;;-1.00;82.20;100302.78;5080322;22;20213;-79
2022/03/10 02:23:40;;;;;;;10.60;7.93;;;;;;;-1.07;83.13;100301.63;5067010;22;20258;-74
2022/03/10 02:26:33;;;;;;;9.20;7.70;;;;;;;-1.11;83.19;100311.56;5236538;22;20236;-73
2022/03/10 02:29:35;;;;;;;12.67;7.90;;;;;;;-1.23;84.77;100314.41;5094115;22;20715;-76
2022/03/10 02:32:38;;;;;;;11.30;8.40;;;;;;;-1.29;85.39;100313.09;5188524;22;20243;-74
2022/03/10 02:35:15;;;;;;;9.53;7.57;;;;;;;-1.29;85.27;100315.75;5108208;22;20597;-76
2022/03/10 02:37:50;;;;;;;12.20;8.27;;;;;;;-1.30;86.08;100315.84;5074601;28;20197;-77
2022/03/10 02:40:22;;;;;;;10.70;8.43;;;;;;;-1.34;87.02;100317.91;5066363;28;20225;-77
2022/03/10 02:42:55;;;;;;;11.60;8.20;;;;;;;-1.38;87.22;100316.50;5067863;28;20263;-74
2022/03/10 02:45:27;;;;;;;9.67;7.90;;;;;;;-1.51;88.28;100321.09;5069329;28;20213;-77
2022/03/10 02:48:01;;;;;;;13.03;8.87;;;;;;;-1.52;89.20;100329.94;5072966;28;20251;-78
2022/03/10 02:50:31;;;;;;;12.63;8.30;;;;;;;-1.57;90.70;100324.22;5057381;28;20256;-80
2022/03/10 02:53:21;;;;;;;9.70;7.80;;;;;;;-1.61;91.68;100325.44;5067536;28;20195;-74
2022/03/10 02:55:56;;;;;;;11.80;8.63;;;;;;;-1.65;92.69;100327.50;5069297;22;20268;-73
2022/03/10 02:58:24;;;;;;;11.23;8.60;;;;;;;-1.70;93.36;100334.91;5066586;28;20205;-74
2022/03/10 03:00:55;;;;;;;12.27;8.60;;;;;;;-1.72;94.31;100331.56;5061883;28;20237;-75
2022/03/10 03:03:36;;;;;;;10.23;8.03;;;;;;;-1.75;94.92;100333.59;5074202;28;20644;-76
2022/03/10 03:06:08;;;;;;;11.37;8.30;;;;;;;-1.71;94.78;100335.03;5071964;28;20193;-74
2022/03/10 03:08:45;;;;;;;11.47;8.43;;;;;;;-1.75;95.36;100342.31;5057885;28;20229;-80
2022/03/10 03:11:14;;;;;;;10.53;8.07;;;;;;;-1.79;95.64;100338.28;5091587;22;20251;-75
2022/03/10 03:13:45;;;;;;;11.50;8.30;;;;;;;-1.81;95.71;100341.03;5078533;28;20229;-74
2022/03/10 03:16:13;;;;;;;13.50;8.63;;;;;;;-1.85;96.45;100339.59;5085157;28;20304;-79
2022/03/10 03:18:47;;;;;;;13.00;8.30;;;;;;;-1.87;97.39;100349.38;5092856;22;20240;-73
2022/03/10 03:21:21;;;;;;;13.90;7.90;;;;;;;-1.91;98.86;100342.72;5066889;28;20225;-76
2022/03/10 03:23:48;;;;;;;11.90;8.47;;;;;;;-1.91;99.91;100344.50;5063596;28;20289;-78
2022/03/10 03:26:16;;;;;;;11.50;8.70;;;;;;;-1.90;100.00;100352.28;5089066;28;20217;-76
2022/03/10 03:28:50;;;;;;;11.50;8.23;;;;;;;-1.89;100.00;100356.56;5088997;28;20216;-81
2022/03/10 03:31:23;;;;;;;13.07;8.43;;;;;;;-1.93;100.00;100356.94;5096198;23;20237;-76
2022/03/10 03:33:52;;;;;;;10.73;8.40;;;;;;;-1.96;100.00;100370.31;5101052;22;20227;-75
2022/03/10 03:37:06;;;;;;;11.90;8.37;;;;;;;-1.97;100.00;100366.88;5099061;22;20212;-76
2022/03/10 03:39:57;;;;;;;10.87;8.47;;;;;;;-2.00;100.00;100376.75;5096899;28;20228;-76
2022/03/10 03:42:36;;;;;;;13.33;8.27;;;;;;;-1.99;100.00;100371.38;5077176;28;20212;-76
2022/03/10 03:45:38;;;;;;;11.50;8.60;;;;;;;-2.02;100.00;100371.66;5094740;22;20288;-75
2022/03/10 03:48:13;;;;;;;14.30;9.47;;;;;;;-1.98;100.00;100380.94;5059262;23;20221;-79
2022/03/10 03:51:12;;;;;;;12.10;8.63;;;;;;;-2.06;100.00;100383.34;5076878;28;20228;-76
2022/03/10 03:54:06;;;;;;;11.37;8.30;;;;;;;-2.09;100.00;100382.72;5064273;22;20229;-77
2022/03/10 03:57:28;;;;;;;11.30;8.60;;;;;;;-2.13;100.00;100390.03;5069360;22;20209;-76
2022/03/10 04:00:26;;;;;;;12.20;9.23;;;;;;;-2.17;100.00;100378.09;5095225;22;20235;-80
2022/03/10 04:03:26;;;;;;;11.43;9.30;;;;;;;-2.17;100.00;100385.97;5099981;22;20240;-77
2022/03/10 04:06:20;;;;;;;14.57;9.17;;;;;;;-2.18;100.00;100378.19;5058310;28;20260;-76
2022/03/10 04:09:57;;;;;;;14.33;9.30;;;;;;;-2.19;100.00;100381.81;5069675;22;20222;-78
2022/03/10 04:13:37;;;;;;;11.60;8.73;;;;;;;-2.18;100.00;100388.72;5037026;28;20637;-78
2022/03/10 04:16:18;;;;;;;12.50;8.87;;;;;;;-2.17;100.00;100388.59;5077824;22;20221;-79
2022/03/10 04:19:14;;;;;;;11.63;8.47;;;;;;;-2.16;100.00;100386.81;5056242;22;20234;-76
2022/03/10 04:22:03;;;;;;;14.43;9.17;;;;;;;-2.18;100.00;100396.59;5071985;23;20264;-75
2022/03/10 04:24:37;;;;;;;13.57;8.87;;;;;;;-2.11;100.00;100395.16;5165302;22;20210;-77
2022/03/10 04:27:16;;;;;;;12.50;8.63;;;;;;;-2.16;100.00;100398.16;5086659;22;20237;-79
2022/03/10 04:30:24;;;;;;;13.17;9.43;;;;;;;-2.16;100.00;100411.28;5098526;28;20262;-76
2022/03/10 04:33:09;;;;;;;12.93;9.47;;;;;;;-2.11;100.00;100401.25;5180352;22;20238;-76
2022/03/10 04:36:07;;;;;;;13.10;8.53;;;;;;;-2.04;100.00;100402.44;5075869;22;20210;-75
2022/03/10 04:39:01;;;;;;;11.67;8.70;;;;;;;-2.09;100.00;100409.81;5077378;28;20220;-77
2022/03/10 04:41:55;;;;;;;12.27;8.83;;;;;;;-2.09;100.00;100419.50;5094505;22;20237;-76
2022/03/10 04:44:36;;;;;;;13.20;8.90;;;;;;;-2.07;100.00;100421.06;5101364;22;20640;-76
2022/03/10 04:47:14;;;;;;;11.43;8.43;;;;;;;-2.07;100.00;100423.69;5088070;28;20551;-78
2022/03/10 04:49:53;;;;;;;11.80;8.80;;;;;;;-2.02;100.00;100420.69;5101724;22;20239;-77
2022/03/10 04:52:27;;;;;;;12.23;10.07;;;;;;;-2.00;100.00;100430.13;5082507;22;20308;-75
2022/03/10 04:55:04;;;;;;;13.73;10.73;;;;;;;-1.94;100.00;100429.63;5049736;28;20654;-75
2022/03/10 04:57:34;;;;;;;14.13;10.33;;;;;;;-1.99;100.00;100431.78;5061656;28;20249;-76
2022/03/10 05:00:18;;;;;;;12.93;10.23;;;;;;;-1.99;100.00;100434.41;5051639;28;20292;-77
2022/03/10 05:02:49;;;;;;;13.10;9.70;;;;;;;-2.01;100.00;100430.25;5061402;28;20236;-78
2022/03/10 05:05:23;;;;;;;13.10;9.23;;;;;;;-2.04;100.00;100431.31;5062303;28;20253;-77
2022/03/10 05:08:10;;;;;;;11.10;8.27;;;;;;;-2.02;100.00;100436.44;5062591;28;20216;-76
2022/03/10 05:11:02;;;;;;;12.13;9.30;;;;;;;-2.01;100.00;100440.75;5071577;28;20293;-77
2022/03/10 05:13:41;;;;;;;12.57;9.30;;;;;;;-2.09;100.00;100443.13;5093462;22;20305;-80
2022/03/10 05:16:09;;;;;;;12.40;9.57;;;;;;;-2.08;100.00;100445.63;5093372;28;20250;-77
2022/03/10 05:19:00;;;;;;;12.43;9.50;;;;;;;-2.05;100.00;100450.63;5096804;28;20228;-80
2022/03/10 05:21:39;;;;;;;13.30;9.27;;;;;;;-2.07;100.00;100457.81;5099124;22;20271;-76
2022/03/10 05:24:18;;;;;;;14.30;9.80;;;;;;;-2.06;100.00;100454.25;5078288;28;20227;-75
2022/03/10 05:27:10;;;;;;;13.03;10.03;;;;;;;-2.01;100.00;100459.13;5076949;28;20203;-76
2022/03/10 05:29:50;;;;;;;14.83;9.87;;;;;;;-1.98;100.00;100470.22;5082869;22;20231;-76
2022/03/10 05:32:44;;;;;;;13.47;9.67;;;;;;;-1.89;100.00;100468.69;5091283;22;20239;-76
2022/03/10 05:35:30;;;;;;;13.17;9.90;;;;;;;-1.83;100.00;100470.84;5074721;22;20234;-77
2022/03/10 05:38:29;;;;;;;16.53;10.20;;;;;;;-1.73;100.00;100482.28;5055835;28;20245;-76
2022/03/10 05:41:11;;;;;;;11.60;9.20;;;;;;;-1.63;100.00;100477.16;5089229;22;20742;-78
2022/03/10 05:43:43;;;;;;;11.60;9.40;;;;;;;-1.48;100.00;100470.66;5074879;22;20257;-76
2022/03/10 05:46:18;;;;;;;12.47;9.33;;;;;;;-1.30;100.00;100484.13;5064635;28;20216;-77
2022/03/10 05:48:57;;;;;;;16.23;9.73;;;;;;;-1.07;100.00;100491.81;5081471;22;20221;-76
2022/03/10 05:51:36;;;;;;;14.07;9.80;;;;;;;-0.84;100.00;100494.38;5079374;22;20259;-76
2022/03/10 05:54:54;;;;;;;13.63;9.40;;;;;;;-0.59;100.00;100492.22;5082026;22;20208;-75
2022/03/10 05:57:25;;;;;;;13.07;9.07;;;;;;;-0.27;100.00;100500.06;5095228;22;20225;-76
2022/03/10 06:00:10;;;;;;;11.07;8.63;;;;;;;0.07;100.00;100502.47;5102314;22;20228;-76
2022/03/10 06:02:42;;;;;;;15.50;9.40;;;;;;;0.37;100.00;100502.47;5079783;28;20300;-76
2022/03/10 06:05:45;;;;;;;12.93;8.87;;;;;;;0.78;95.30;100510.22;5058888;28;20220;-75
2022/03/10 06:08:29;;;;;;;16.17;9.33;;;;;;;1.09;88.70;100510.94;5087685;22;20239;-76
2022/03/10 06:11:14;;;;;;;13.20;9.10;;;;;;;1.28;86.86;100512.78;5097387;22;20225;-78
2022/03/10 06:14:18;;;;;;;12.77;8.30;;;;;;;1.55;84.75;100510.25;5101051;22;20237;-77
2022/03/10 06:17:11;;;;;;;16.10;9.60;;;;;;;1.80;81.59;100515.94;5077877;22;20272;-77
2022/03/10 06:20:11;;;;;;;13.53;9.40;;;;;;;2.20;78.71;100519.16;5105788;22;20169;-75
2022/03/10 06:26:18;;;;;;;11.90;8.90;;;;;;;2.79;72.69;100526.69;4997319;28;20300;-77
2022/03/10 06:28:49;;;;;;;14.03;9.00;;;;;;;3.04;70.12;100531.25;5022506;22;20283;-77
2022/03/10 06:31:42;;;;;;;12.60;9.13;;;;;;;3.18;69.88;100531.72;5052774;22;20235;-75
2022/03/10 06:35:03;;;;;;;14.23;9.40;;;;;;;3.46;67.89;100531.50;5068968;28;20235;-75
2022/03/10 06:38:06;;;;;;;12.90;9.10;;;;;;;3.58;66.68;100521.53;5089773;22;20247;-73
2022/03/10 06:40:41;;;;;;;13.77;9.73;;;;;;;3.83;65.40;100531.31;5265662;22;20240;-76
2022/03/10 06:43:26;;;;;;;15.20;9.43;;;;;;;4.11;64.07;100539.97;5072968;28;20225;-74
2022/03/10 06:45:58;;;;;;;13.67;10.07;;;;;;;4.17;63.26;100543.81;5084529;28;20580;-76
2022/03/10 06:48:45;;;;;;;15.30;10.10;;;;;;;4.31;62.87;100541.41;5067448;28;20223;-75
2022/03/10 06:51:41;;;;;;;13.63;10.27;;;;;;;4.42;62.36;100542.97;5076363;28;20245;-75
2022/03/10 06:55:22;;;;;;;12.97;9.63;;;;;;;4.41;62.11;100549.28;5086802;28;20271;-76
2022/03/10 06:58:33;;;;;;;15.30;10.70;;;;;;;4.57;61.52;100567.09;5098607;22;20251;-76
2022/03/10 07:02:07;;;;;;;15.97;10.80;;;;;;;4.41;62.17;100557.22;5081891;22;20280;-76
2022/03/10 07:04:58;;;;;;;15.90;11.43;;;;;;;4.55;62.03;100548.69;5095334;22;20840;-74
2022/03/10 07:07:41;;;;;;;15.47;10.77;;;;;;;4.65;61.57;100548.56;5198953;22;20267;-75
2022/03/10 07:11:00;;;;;;;15.93;11.40;;;;;;;4.69;61.57;100557.88;5332206;22;20600;-74
2022/03/10 07:13:56;;;;;;;17.73;11.33;;;;;;;4.91;60.74;100564.41;5145558;23;20194;-75
2022/03/10 07:16:58;;;;;;;17.87;12.00;;;;;;;4.91;61.38;100561.75;5053596;28;20229;-75
2022/03/10 07:20:36;;;;;;;17.03;12.30;;;;;;;4.96;60.43;100564.78;5057360;28;20198;-76
2022/03/10 07:24:03;;;;;;;15.13;11.93;;;;;;;5.11;59.39;100556.03;5076427;22;20569;-75
2022/03/10 07:27:00;;;;;;;14.63;11.13;;;;;;;5.24;59.60;100558.22;5096393;22;20225;-75
2022/03/10 07:30:25;;;;;;;16.00;12.20;;;;;;;5.41;59.49;100565.25;5202237;22;20196;-77
2022/03/10 07:34:00;;;;;;;15.93;12.07;;;;;;;5.45;58.59;100563.91;5258041;22;20196;-75
2022/03/10 07:37:26;;;;;;;18.60;13.17;;;;;;;5.71;58.51;100561.94;5089374;22;20221;-75
2022/03/10 07:40:16;;;;;;;16.57;12.60;;;;;;;5.69;58.25;100569.22;5094279;22;20255;-75
2022/03/10 07:42:51;;;;;;;14.67;11.67;;;;;;;5.85;57.29;100567.59;5093097;22;20247;-76
2022/03/10 07:45:52;;;;;;;18.10;13.93;;;;;;;5.77;58.14;100560.44;5086532;28;20227;-76
2022/03/10 07:48:45;;;;;;;18.43;13.87;;;;;;;5.98;58.36;100570.59;5076288;28;20221;-78
2022/03/10 07:51:44;;;;;;;21.23;14.37;;;;;;;6.30;57.80;100570.56;5193878;22;20235;31
2022/03/10 07:54:25;;;;;;;16.50;13.47;;;;;;;6.31;58.35;100568.72;5045918;22;20233;-76
2022/03/10 07:57:08;;;;;;;21.23;14.53;;;;;;;6.51;57.28;100572.69;5079650;22;20229;-79
2022/03/10 08:00:04;;;;;;;18.47;14.93;;;;;;;6.54;56.21;100575.00;5090338;28;20204;-77
2022/03/10 08:02:51;;;;;;;18.47;14.43;;;;;;;6.75;56.32;100574.44;5094618;22;20251;-77
2022/03/10 08:05:19;;;;;;;17.57;13.50;;;;;;;6.61;55.73;100576.81;5091041;28;20206;-77
2022/03/10 08:07:58;;;;;;;20.63;14.63;;;;;;;6.84;55.43;100568.91;5092877;28;20209;-81
2022/03/10 08:10:29;;;;;;;19.63;14.27;;;;;;;7.00;55.28;100568.84;5085063;22;20221;-83
2022/03/10 08:12:58;;;;;;;19.03;14.90;;;;;;;6.69;56.45;100564.47;5077537;28;20213;-81
2022/03/10 08:15:33;;;;;;;19.73;14.80;;;;;;;7.03;55.95;100570.34;5086567;22;20239;-83
2022/03/10 08:18:06;;;;;;;18.73;15.80;;;;;;;7.04;56.43;100569.34;5090551;22;20244;-78
2022/03/10 08:20:43;;;;;;;18.80;15.83;;;;;;;6.77;57.58;100570.59;5053107;28;20209;-77
2022/03/10 08:23:21;;;;;;;18.73;14.33;;;;;;;6.22;57.21;100567.91;5065992;28;20711;-80
2022/03/10 08:25:55;;;;;;;18.37;15.60;;;;;;;6.52;57.69;100572.53;5072160;28;20227;-77
2022/03/10 08:28:38;;;;;;;20.63;15.27;;;;;;;6.75;56.97;100569.94;5061676;28;20233;-79
2022/03/10 08:31:34;;;;;;;20.53;15.30;;;;;;;6.97;55.08;100581.69;5082182;28;20229;-76
2022/03/10 08:34:06;;;;;;;21.77;15.30;;;;;;;7.05;55.61;100568.31;5091210;28;20240;-76
2022/03/10 08:36:37;;;;;;;21.23;15.43;;;;;;;7.14;54.85;100572.59;5084544;28;20231;-82
2022/03/10 08:39:15;;;;;;;20.33;16.33;;;;;;;7.22;53.10;100574.41;5072387;28;20236;-76
2022/03/10 08:41:51;;;;;;;22.27;16.40;;;;;;;7.28;52.63;100577.19;5078559;22;20306;-81
2022/03/10 08:44:28;;;;;;;34.63;25.80;;;;;;;7.05;53.66;100574.47;5077932;22;20259;-80
2022/03/10 08:50:32;;;;;;;24.67;19.03;;;;;;;7.34;51.76;100565.00;5065834;22;20241;-75
2022/03/10 08:53:15;;;;;;;22.17;17.43;;;;;;;7.77;51.43;100568.88;5069918;23;20239;-76
2022/03/10 08:55:48;;;;;;;19.17;15.27;;;;;;;7.61;50.29;100566.31;5072929;22;20228;-76
2022/03/10 08:59:04;;;;;;;20.70;16.83;;;;;;;7.70;50.49;100575.94;5056225;28;20229;-75
2022/03/10 09:01:35;;;;;;;17.60;14.73;;;;;;;7.74;51.06;100572.75;5073043;28;20245;-76
2022/03/10 09:04:14;;;;;;;20.43;16.07;;;;;;;8.16;50.00;100566.88;5059444;28;20197;-75
2022/03/10 09:07:09;;;;;;;18.93;15.80;;;;;;;7.47;50.09;100579.41;5095142;22;20220;-75
2022/03/10 09:09:42;;;;;;;18.23;14.73;;;;;;;6.95;51.55;100576.50;5079564;22;20738;-75
2022/03/10 09:12:26;;;;;;;18.70;15.53;;;;;;;7.53;51.59;100572.53;5083249;28;20521;-74
2022/03/10 09:15:22;;;;;;;16.67;14.63;;;;;;;7.08;49.57;100567.97;5095921;22;20228;-75
2022/03/10 09:18:17;;;;;;;16.83;13.03;;;;;;;6.32;52.60;100570.41;5103013;22;20220;-75
2022/03/10 09:21:09;;;;;;;18.00;12.80;;;;;;;5.94;52.89;100572.78;5077348;22;20252;-74
2022/03/10 09:23:58;;;;;;;20.27;14.03;;;;;;;5.77;54.13;100581.72;5073621;22;20236;-74
2022/03/10 09:26:34;;;;;;;19.43;13.63;;;;;;;5.70;54.38;100578.03;5081527;23;20249;-74
2022/03/10 09:29:21;;;;;;;19.70;13.90;;;;;;;5.61;55.10;100576.38;5081890;22;20244;-75
2022/03/10 09:32:13;;;;;;;19.57;15.20;;;;;;;5.83;54.54;100580.22;5081250;28;20244;-74
2022/03/10 09:35:13;;;;;;;18.83;14.40;;;;;;;5.71;55.37;100579.72;5067775;28;20235;-74
2022/03/10 09:37:45;;;;;;;20.87;14.70;;;;;;;5.87;56.29;100576.28;5092717;22;20256;-75
2022/03/10 09:40:57;;;;;;;19.47;15.07;;;;;;;6.41;54.70;100577.38;5091286;22;20241;-74
2022/03/10 09:43:33;;;;;;;21.07;16.43;;;;;;;6.68;53.64;100568.97;5069429;22;20233;-75
2022/03/10 09:47:03;;;;;;;19.53;16.20;;;;;;;7.20;52.25;100582.56;5061586;23;20289;-74
2022/03/10 09:49:41;;;;;;;20.63;15.30;;;;;;;6.31;54.45;100587.34;5003849;22;20258;-75
2022/03/10 09:52:14;;;;;;;19.23;15.17;;;;;;;6.58;53.87;100582.47;5085589;22;20232;-74
2022/03/10 09:55:14;;;;;;;18.37;13.97;;;;;;;6.83;52.36;100587.72;5071775;22;20230;-75
2022/03/10 09:58:16;;;;;;;16.53;14.33;;;;;;;7.08;51.40;100578.66;5028038;28;20230;-75
2022/03/10 10:01:07;;;;;;;20.17;14.47;;;;;;;6.95;50.85;100586.38;5041694;28;20254;-75
2022/03/10 10:04:10;;;;;;;17.40;14.30;;;;;;;7.09;50.44;100585.63;5060674;23;20240;-74
2022/03/10 10:07:26;;;;;;;17.03;13.90;;;;;;;7.12;50.09;100581.78;5176102;23;20259;-75
2022/03/10 10:10:06;;;;;;;15.33;12.63;;;;;;;7.19;49.33;100583.56;5066489;28;20546;-76
2022/03/10 10:12:46;;;;;;;16.23;12.80;;;;;;;7.98;48.18;100583.19;5082007;22;20233;-75
2022/03/10 10:15:23;;;;;;;15.03;11.87;;;;;;;8.17;46.37;100573.84;5060400;28;20231;-75
2022/03/10 10:18:00;;;;;;;13.53;12.13;;;;;;;7.65;46.65;100581.78;5078141;28;20252;-74
2022/03/10 10:21:02;;;;;;;13.37;11.43;;;;;;;8.00;45.77;100583.03;5068088;28;20233;-75
2022/03/10 10:23:45;;;;;;;15.87;11.80;;;;;;;8.31;45.29;100578.41;5080403;22;20261;-75
2022/03/10 10:26:31;;;;;;;14.83;12.03;;;;;;;8.05;45.23;100577.13;5070438;28;20202;-75
2022/03/10 10:29:15;;;;;;;14.60;11.67;;;;;;;8.53;44.15;100579.38;5086916;22;20225;-74
2022/03/10 10:32:29;;;;;;;13.97;11.73;;;;;;;7.90;44.71;100574.44;5083763;28;20224;-74
2022/03/10 10:35:23;;;;;;;13.57;11.37;;;;;;;7.81;45.40;100589.66;5170575;22;20229;-75
2022/03/10 10:38:19;;;;;;;16.43;12.43;;;;;;;7.60;46.25;100581.50;5092993;22;20263;-76
2022/03/10 10:41:36;;;;;;;13.90;11.47;;;;;;;7.93;45.76;100590.91;5087341;22;20229;-75
2022/03/10 10:44:20;;;;;;;13.53;11.07;;;;;;;7.23;48.21;100586.72;5089699;22;20246;-75
2022/03/10 10:47:09;;;;;;;14.77;12.30;;;;;;;7.58;47.35;100578.19;5101767;22;20258;-74
2022/03/10 10:50:10;;;;;;;14.20;11.83;;;;;;;7.97;45.58;100567.38;5093624;22;20214;-75
2022/03/10 10:52:56;;;;;;;13.83;11.93;;;;;;;8.43;44.42;100562.78;5064539;23;20310;-75
2022/03/10 10:55:47;;;;;;;13.10;11.70;;;;;;;7.93;45.37;100569.56;5054778;23;20253;-75
2022/03/10 11:01:03;;;;;;;13.40;10.90;;;;;;;8.49;43.89;100564.72;5051581;22;20585;-75
2022/03/10 11:04:16;;;;;;;14.20;11.13;;;;;;;8.38;43.69;100565.19;5049409;22;20230;-75
2022/03/10 11:06:50;;;;;;;12.70;11.07;;;;;;;8.26;43.84;100558.56;5072673;28;20204;-75
2022/03/10 11:09:40;;;;;;;13.67;10.60;;;;;;;8.35;44.19;100562.88;5068599;28;20225;-75
2022/03/10 11:12:39;;;;;;;12.47;10.57;;;;;;;7.74;43.95;100563.91;5083222;22;20276;-75
2022/03/10 11:15:19;;;;;;;11.47;9.77;;;;;;;7.34;43.83;100560.50;5102282;28;20248;-74
2022/03/10 11:17:55;;;;;;;12.97;10.77;;;;;;;7.76;43.98;100561.88;5070648;28;20659;-75
2022/03/10 11:20:49;;;;;;;14.97;11.43;;;;;;;7.84;43.35;100567.97;5101537;28;20240;-75
2022/03/10 11:23:41;;;;;;;13.13;10.63;;;;;;;7.84;43.84;100556.47;5111432;28;20212;-75
2022/03/10 11:26:35;;;;;;;13.80;10.90;;;;;;;8.29;42.94;100564.44;5092361;28;20227;-75
2022/03/10 11:29:58;;;;;;;15.37;11.03;;;;;;;8.83;41.42;100548.13;5192570;22;20229;-75
2022/03/10 11:32:34;;;;;;;12.77;11.33;;;;;;;8.93;41.07;100539.81;5065853;22;20217;-75
2022/03/10 11:35:50;;;;;;;13.00;11.60;;;;;;;9.20;40.82;100541.78;5054924;28;20212;-74
2022/03/10 11:38:53;;;;;;;12.33;10.97;;;;;;;9.67;39.36;100534.06;5053440;23;20252;-75
2022/03/10 11:42:43;;;;;;;12.57;11.27;;;;;;;9.27;39.96;100540.03;5059202;28;20332;-75
2022/03/10 11:45:21;;;;;;;12.57;10.80;;;;;;;8.44;41.39;100534.25;5041842;28;20230;-75
2022/03/10 11:48:28;;;;;;;12.03;9.70;;;;;;;7.84;42.89;100535.94;5066474;22;20219;-75
2022/03/10 11:51:56;;;;;;;14.47;10.93;;;;;;;7.89;43.26;100535.41;5101798;28;20224;-75
2022/03/10 11:54:31;;;;;;;12.77;10.80;;;;;;;8.07;42.64;100543.09;5107403;28;20235;-75
2022/03/10 11:57:19;;;;;;;14.57;11.90;;;;;;;8.30;42.10;100546.59;5108870;28;20396;-74
2022/03/10 11:59:57;;;;;;;13.20;11.27;;;;;;;8.30;42.10;100544.75;5089666;28;20223;-76
2022/03/10 12:02:43;;;;;;;15.00;10.67;;;;;;;8.77;40.55;100535.53;5111891;22;20224;-75
2022/03/10 12:06:04;;;;;;;11.53;10.20;;;;;;;9.24;37.54;100527.03;5085404;28;20252;-77
2022/03/10 12:09:06;;;;;;;12.27;10.83;;;;;;;9.40;37.69;100526.78;5071953;28;20248;-75
2022/03/10 12:12:40;;;;;;;12.33;10.47;;;;;;;9.72;37.44;100522.78;5083693;22;20300;-73
2022/03/10 12:15:43;;;;;;;11.57;10.33;;;;;;;9.35;37.46;100523.03;5064619;28;20196;-75
2022/03/10 12:18:47;;;;;;;12.20;10.63;;;;;;;8.52;39.85;100524.28;5064114;28;20225;-75
2022/03/10 12:21:44;;;;;;;14.13;11.53;;;;;;;8.52;39.68;100524.28;5074338;28;20205;-76
2022/03/10 12:24:54;;;;;;;14.00;11.70;;;;;;;8.42;39.95;100513.06;5077825;22;20230;-75
2022/03/10 12:28:29;;;;;;;15.20;13.53;;;;;;;8.77;38.70;100514.97;5088652;22;20208;-75
2022/03/10 12:34:17;;;;;;;10.47;8.60;;;;;;;7.50;39.78;100517.75;5063992;22;20328;-75
2022/03/10 12:37:01;;;;;;;9.73;7.70;;;;;;;6.97;40.75;100526.56;5082685;23;20256;-75
2022/03/10 12:39:53;;;;;;;8.87;7.83;;;;;;;7.09;40.55;100514.50;5164145;22;20201;-74
2022/03/10 12:42:51;;;;;;;10.63;8.03;;;;;;;7.40;39.33;100517.13;5096599;28;20234;-75
2022/03/10 12:45:46;;;;;;;9.27;7.90;;;;;;;7.78;38.48;100511.84;5093119;28;20229;-75
2022/03/10 12:49:15;;;;;;;13.20;8.07;;;;;;;7.88;37.77;100531.09;5095479;22;20233;-75
2022/03/10 12:52:40;;;;;;;8.60;7.47;;;;;;;7.97;37.29;100511.34;5086063;22;20247;-75
2022/03/10 12:56:13;;;;;;;9.43;7.20;;;;;;;7.30;37.54;100505.88;5185339;22;20292;-75
2022/03/10 12:59:37;;;;;;;15.40;10.67;;;;;;;7.83;35.48;100496.97;5079296;28;20729;-75
2022/03/10 13:03:00;;;;;;;7.97;6.53;;;;;;;7.70;35.92;100503.91;5088463;22;20247;-76
2022/03/10 13:05:55;;;;;;;9.33;7.37;;;;;;;7.36;37.00;100502.50;5073663;22;20315;-75
2022/03/10 13:09:57;;;;;;;9.87;7.80;;;;;;;7.54;37.62;100510.19;5086220;22;20255;-75
2022/03/10 13:13:11;;;;;;;9.60;7.17;;;;;;;7.57;37.12;100501.84;5056442;28;20186;-75
2022/03/10 13:16:22;;;;;;;8.97;7.40;;;;;;;7.75;36.54;100490.84;5051139;28;20228;-75
2022/03/10 13:19:03;;;;;;;10.77;7.83;;;;;;;7.97;36.25;100498.84;5020538;22;1991752;-75
2022/03/10 13:22:01;;;;;;;10.20;7.80;;;;;;;8.11;35.65;100499.84;5171240;22;20239;-74
2022/03/10 13:24:52;;;;;;;9.90;7.60;;;;;;;8.09;35.55;100488.53;4959684;29;20347;-74
2022/03/10 13:28:29;;;;;;;9.70;7.70;;;;;;;8.39;34.15;100489.41;5189095;22;20236;-75
2022/03/10 13:31:17;;;;;;;9.87;7.10;;;;;;;8.25;34.59;100504.38;5054901;28;20252;-75
2022/03/10 13:34:01;;;;;;;8.20;6.67;;;;;;;8.18;34.00;100497.25;5042528;28;20253;-75